Estes Park, Colorado
Current Conditions -  °F | °C
As of 10:15 AM on Friday 28 Nov 2014 (Local Time) from KLMO Reporting Station
Clear Clear  
Wind Chill: 67°   Ceiling: Unl
Heat Index: 67°   Visibility: 10mi
Dew Point:   Wind: 9mph
Humidity: 10%   Direction: 280°W
Pressure: 29.91"   Gusts: 29mph
Location:  40.37°N, 105.52°W
Report Text: KLMO 281715Z AUTO 28008G25KT 10SM CLR 20/M14 A2991 RMK AO2 T01971137
Loading
Personal Weather Stations






























Interactive Weather Map New forecast layout! Learn more

10-Day Weather Forecast

Advertisements
Track Severe Weather on mobile